sensor_id;sensor_type;location;lat;lon;timestamp;pressure;altitude;pressure_sealevel;temperature;humidity
21594;BME280;10959;51.328;7.322;2022-11-20T00:01:28;98334.13;;;2.96;74.65
21594;BME280;10959;51.328;7.322;2022-11-20T00:03:56;98334.81;;;3.04;75.12
21594;BME280;10959;51.328;7.322;2022-11-20T00:06:24;98328.44;;;3.09;74.93
21594;BME280;10959;51.328;7.322;2022-11-20T00:08:52;98325.75;;;3.11;75.21
21594;BME280;10959;51.328;7.322;2022-11-20T00:11:21;98321.19;;;3.16;75.03
21594;BME280;10959;51.328;7.322;2022-11-20T00:13:50;98320.19;;;3.20;74.97
21594;BME280;10959;51.328;7.322;2022-11-20T00:16:19;98320.09;;;3.23;74.94
21594;BME280;10959;51.328;7.322;2022-11-20T00:18:47;98325.31;;;3.26;74.84
21594;BME280;10959;51.328;7.322;2022-11-20T00:21:16;98319.91;;;3.29;74.92
21594;BME280;10959;51.328;7.322;2022-11-20T00:23:43;98323.41;;;3.32;75.06
21594;BME280;10959;51.328;7.322;2022-11-20T00:26:11;98317.16;;;3.33;75.17
21594;BME280;10959;51.328;7.322;2022-11-20T00:28:38;98311.75;;;3.36;75.19
21594;BME280;10959;51.328;7.322;2022-11-20T00:31:06;98314.41;;;3.36;75.22
21594;BME280;10959;51.328;7.322;2022-11-20T00:33:33;98312.59;;;3.38;75.54
21594;BME280;10959;51.328;7.322;2022-11-20T00:36:03;98308.97;;;3.40;75.14
21594;BME280;10959;51.328;7.322;2022-11-20T00:38:30;98313.25;;;3.46;75.19
21594;BME280;10959;51.328;7.322;2022-11-20T00:40:57;98321.13;;;3.49;75.23
21594;BME280;10959;51.328;7.322;2022-11-20T00:43:24;98316.69;;;3.50;75.38
21594;BME280;10959;51.328;7.322;2022-11-20T00:45:50;98325.41;;;3.55;75.65
21594;BME280;10959;51.328;7.322;2022-11-20T00:48:17;98319.19;;;3.54;75.52
21594;BME280;10959;51.328;7.322;2022-11-20T00:50:43;98320.94;;;3.55;75.35
21594;BME280;10959;51.328;7.322;2022-11-20T00:53:11;98316.47;;;3.57;75.34
21594;BME280;10959;51.328;7.322;2022-11-20T00:55:37;98324.38;;;3.60;75.20
21594;BME280;10959;51.328;7.322;2022-11-20T00:58:03;98318.94;;;3.63;75.36
21594;BME280;10959;51.328;7.322;2022-11-20T01:00:30;98329.59;;;3.63;75.46
21594;BME280;10959;51.328;7.322;2022-11-20T01:02:56;98318.84;;;3.67;75.51
21594;BME280;10959;51.328;7.322;2022-11-20T01:05:23;98328.53;;;3.69;74.92
21594;BME280;10959;51.328;7.322;2022-11-20T01:07:49;98328.50;;;3.71;75.42
21594;BME280;10959;51.328;7.322;2022-11-20T01:10:17;98328.34;;;3.75;74.99
21594;BME280;10959;51.328;7.322;2022-11-20T01:12:43;98319.41;;;3.78;75.17
21594;BME280;10959;51.328;7.322;2022-11-20T01:15:30;98315.94;;;3.76;75.42
21594;BME280;10959;51.328;7.322;2022-11-20T01:17:56;98318.41;;;3.82;75.21
21594;BME280;10959;51.328;7.322;2022-11-20T01:20:23;98315.69;;;3.84;75.44
21594;BME280;10959;51.328;7.322;2022-11-20T01:22:49;98312.09;;;3.85;75.69
21594;BME280;10959;51.328;7.322;2022-11-20T01:25:17;98305.78;;;3.87;75.40
21594;BME280;10959;51.328;7.322;2022-11-20T01:27:43;98305.78;;;3.87;75.64
21594;BME280;10959;51.328;7.322;2022-11-20T01:30:11;98303.06;;;3.90;75.51
21594;BME280;10959;51.328;7.322;2022-11-20T01:32:37;98301.25;;;3.91;75.66
21594;BME280;10959;51.328;7.322;2022-11-20T01:35:04;98302.06;;;3.94;75.31
21594;BME280;10959;51.328;7.322;2022-11-20T01:37:31;98303.78;;;3.95;75.76
21594;BME280;10959;51.328;7.322;2022-11-20T01:39:57;98292.16;;;3.98;75.54
21594;BME280;10959;51.328;7.322;2022-11-20T01:42:25;98290.41;;;3.97;75.38
21594;BME280;10959;51.328;7.322;2022-11-20T01:45:51;98289.41;;;3.71;75.81
21594;BME280;10959;51.328;7.322;2022-11-20T01:48:20;98281.81;;;3.89;75.70
21594;BME280;10959;51.328;7.322;2022-11-20T01:50:51;98279.09;;;3.90;75.45
21594;BME280;10959;51.328;7.322;2022-11-20T01:53:21;98285.53;;;3.83;75.49
21594;BME280;10959;51.328;7.322;2022-11-20T01:55:53;98274.13;;;3.78;75.44
21594;BME280;10959;51.328;7.322;2022-11-20T01:58:27;98272.47;;;3.74;75.23
21594;BME280;10959;51.328;7.322;2022-11-20T02:00:55;98276.59;;;3.84;75.58
21594;BME280;10959;51.328;7.322;2022-11-20T02:03:22;98274.72;;;3.88;75.56
21594;BME280;10959;51.328;7.322;2022-11-20T02:05:51;98286.34;;;3.85;75.39
21594;BME280;10959;51.328;7.322;2022-11-20T02:08:21;98282.75;;;3.86;75.20
21594;BME280;10959;51.328;7.322;2022-11-20T02:10:49;98287.16;;;3.87;75.21
21594;BME280;10959;51.328;7.322;2022-11-20T02:13:15;98284.47;;;3.87;75.44
21594;BME280;10959;51.328;7.322;2022-11-20T02:16:01;98293.41;;;3.86;75.16
21594;BME280;10959;51.328;7.322;2022-11-20T02:18:28;98282.56;;;3.92;75.23
21594;BME280;10959;51.328;7.322;2022-11-20T02:21:01;98283.63;;;3.87;75.06
21594;BME280;10959;51.328;7.322;2022-11-20T02:23:33;98281.66;;;3.93;75.22
21594;BME280;10959;51.328;7.322;2022-11-20T02:26:06;98280.91;;;3.88;74.66
21594;BME280;10959;51.328;7.322;2022-11-20T02:28:34;98288.00;;;3.89;74.81
21594;BME280;10959;51.328;7.322;2022-11-20T02:31:01;98270.16;;;3.91;74.74
21594;BME280;10959;51.328;7.322;2022-11-20T02:33:27;98269.97;;;3.97;74.75
21594;BME280;10959;51.328;7.322;2022-11-20T02:35:54;98268.22;;;3.96;74.79
21594;BME280;10959;51.328;7.322;2022-11-20T02:38:20;98271.66;;;4.00;74.70
21594;BME280;10959;51.328;7.322;2022-11-20T02:40:47;98269.03;;;3.98;74.91
21594;BME280;10959;51.328;7.322;2022-11-20T02:43:15;98270.94;;;3.95;74.79
21594;BME280;10959;51.328;7.322;2022-11-20T02:45:42;98271.53;;;4.05;74.74
21594;BME280;10959;51.328;7.322;2022-11-20T02:48:08;98264.41;;;4.05;74.93
21594;BME280;10959;51.328;7.322;2022-11-20T02:50:37;98257.28;;;4.06;74.85
21594;BME280;10959;51.328;7.322;2022-11-20T02:53:04;98255.44;;;4.08;74.93
21594;BME280;10959;51.328;7.322;2022-11-20T02:55:30;98257.28;;;4.06;74.87
21594;BME280;10959;51.328;7.322;2022-11-20T02:57:57;98253.63;;;4.08;74.82
21594;BME280;10959;51.328;7.322;2022-11-20T03:00:24;98251.75;;;4.12;74.90
21594;BME280;10959;51.328;7.322;2022-11-20T03:02:51;98256.19;;;4.13;75.01
21594;BME280;10959;51.328;7.322;2022-11-20T03:05:17;98252.56;;;4.14;75.02
21594;BME280;10959;51.328;7.322;2022-11-20T03:07:44;98248.94;;;4.17;74.93
21594;BME280;10959;51.328;7.322;2022-11-20T03:10:10;98243.63;;;4.17;75.06
21594;BME280;10959;51.328;7.322;2022-11-20T03:12:37;98246.34;;;4.15;75.17
21594;BME280;10959;51.328;7.322;2022-11-20T03:15:04;98244.41;;;4.19;75.10
21594;BME280;10959;51.328;7.322;2022-11-20T03:17:32;98239.06;;;4.20;75.03
21594;BME280;10959;51.328;7.322;2022-11-20T03:19:58;98240.03;;;4.18;75.27
21594;BME280;10959;51.328;7.322;2022-11-20T03:22:25;98245.25;;;4.21;75.12
21594;BME280;10959;51.328;7.322;2022-11-20T03:24:51;98242.53;;;4.22;75.00
21594;BME280;10959;51.328;7.322;2022-11-20T03:27:18;98235.34;;;4.24;75.15
21594;BME280;10959;51.328;7.322;2022-11-20T03:29:44;98238.84;;;4.26;75.13
21594;BME280;10959;51.328;7.322;2022-11-20T03:32:10;98239.75;;;4.25;75.17
21594;BME280;10959;51.328;7.322;2022-11-20T03:34:38;98235.34;;;4.24;75.40
21594;BME280;10959;51.328;7.322;2022-11-20T03:37:05;98226.66;;;4.19;75.39
21594;BME280;10959;51.328;7.322;2022-11-20T03:39:31;98231.88;;;4.22;75.24
21594;BME280;10959;51.328;7.322;2022-11-20T03:41:57;98235.34;;;4.24;75.29
21594;BME280;10959;51.328;7.322;2022-11-20T03:44:24;98226.44;;;4.25;75.28
21594;BME280;10959;51.328;7.322;2022-11-20T03:46:50;98229.94;;;4.27;75.22
21594;BME280;10959;51.328;7.322;2022-11-20T03:49:18;98229.94;;;4.27;75.09
21594;BME280;10959;51.328;7.322;2022-11-20T03:51:46;98222.03;;;4.24;75.21
21594;BME280;10959;51.328;7.322;2022-11-20T03:54:12;98227.34;;;4.24;75.36
21594;BME280;10959;51.328;7.322;2022-11-20T03:56:39;98230.91;;;4.25;75.49
21594;BME280;10959;51.328;7.322;2022-11-20T03:59:05;98224.63;;;4.27;75.26
21594;BME280;10959;51.328;7.322;2022-11-20T04:01:34;98223.66;;;4.28;75.35
21594;BME280;10959;51.328;7.322;2022-11-20T04:04:02;98223.72;;;4.27;75.29
21594;BME280;10959;51.328;7.322;2022-11-20T04:06:30;98224.63;;;4.27;75.17
21594;BME280;10959;51.328;7.322;2022-11-20T04:09:00;98213.84;;;4.30;75.15
21594;BME280;10959;51.328;7.322;2022-11-20T04:11:28;98216.50;;;4.30;75.00
21594;BME280;10959;51.328;7.322;2022-11-20T04:13:57;98219.28;;;4.27;75.12
21594;BME280;10959;51.328;7.322;2022-11-20T04:16:25;98219.38;;;4.24;75.02
21594;BME280;10959;51.328;7.322;2022-11-20T04:18:52;98214.03;;;4.24;75.05
21594;BME280;10959;51.328;7.322;2022-11-20T04:21:19;98224.78;;;4.21;74.99
21594;BME280;10959;51.328;7.322;2022-11-20T04:23:46;98224.00;;;4.19;75.07
21594;BME280;10959;51.328;7.322;2022-11-20T04:26:13;98226.66;;;4.19;75.18
21594;BME280;10959;51.328;7.322;2022-11-20T04:28:40;98221.31;;;4.19;74.98
21594;BME280;10959;51.328;7.322;2022-11-20T04:31:08;98221.22;;;4.22;75.69
21594;BME280;10959;51.328;7.322;2022-11-20T04:33:36;98221.13;;;4.25;75.15
21594;BME280;10959;51.328;7.322;2022-11-20T04:36:05;98219.28;;;4.27;75.04
21594;BME280;10959;51.328;7.322;2022-11-20T04:38:32;98224.69;;;4.24;74.97
21594;BME280;10959;51.328;7.322;2022-11-20T04:40:59;98224.63;;;4.27;75.23
21594;BME280;10959;51.328;7.322;2022-11-20T04:43:27;98217.53;;;4.26;75.28
21594;BME280;10959;51.328;7.322;2022-11-20T04:45:54;98231.66;;;4.28;75.22
21594;BME280;10959;51.328;7.322;2022-11-20T04:48:22;98225.41;;;4.29;75.38
21594;BME280;10959;51.328;7.322;2022-11-20T04:50:48;98227.13;;;4.32;75.34
21594;BME280;10959;51.328;7.322;2022-11-20T04:53:15;98227.97;;;4.32;75.13
21594;BME280;10959;51.328;7.322;2022-11-20T04:55:41;98223.66;;;4.28;75.22
21594;BME280;10959;51.328;7.322;2022-11-20T04:58:08;98224.50;;;4.30;75.19
21594;BME280;10959;51.328;7.322;2022-11-20T05:00:36;98216.50;;;4.30;75.20
21594;BME280;10959;51.328;7.322;2022-11-20T05:03:03;98220.09;;;4.29;75.19
21594;BME280;10959;51.328;7.322;2022-11-20T05:05:29;98218.28;;;4.30;75.23
21594;BME280;10959;51.328;7.322;2022-11-20T05:07:56;98224.50;;;4.30;75.33
21594;BME280;10959;51.328;7.322;2022-11-20T05:10:22;98219.06;;;4.33;75.31
21594;BME280;10959;51.328;7.322;2022-11-20T05:12:49;98223.56;;;4.31;75.24
21594;BME280;10959;51.328;7.322;2022-11-20T05:15:16;98224.41;;;4.33;75.19
21594;BME280;10959;51.328;7.322;2022-11-20T05:17:48;98230.13;;;4.21;75.13
21594;BME280;10959;51.328;7.322;2022-11-20T05:20:14;98229.84;;;4.30;75.22
21594;BME280;10959;51.328;7.322;2022-11-20T05:22:41;98228.03;;;4.31;75.11
21594;BME280;10959;51.328;7.322;2022-11-20T05:25:08;98226.16;;;4.35;75.32
21594;BME280;10959;51.328;7.322;2022-11-20T05:27:34;98228.75;;;4.36;75.16
21594;BME280;10959;51.328;7.322;2022-11-20T05:30:01;98222.47;;;4.39;75.22
21594;BME280;10959;51.328;7.322;2022-11-20T05:32:27;98220.72;;;4.38;75.32
21594;BME280;10959;51.328;7.322;2022-11-20T05:34:55;98223.25;;;4.41;74.94
21594;BME280;10959;51.328;7.322;2022-11-20T05:37:22;98223.25;;;4.41;75.08
21594;BME280;10959;51.328;7.322;2022-11-20T05:39:48;98225.94;;;4.41;74.91
21594;BME280;10959;51.328;7.322;2022-11-20T05:42:15;98227.69;;;4.42;75.36
21594;BME280;10959;51.328;7.322;2022-11-20T05:44:56;98232.13;;;4.41;75.27
21594;BME280;10959;51.328;7.322;2022-11-20T05:47:23;98234.84;;;4.40;75.28
21594;BME280;10959;51.328;7.322;2022-11-20T05:49:49;98235.69;;;4.42;75.34
21594;BME280;10959;51.328;7.322;2022-11-20T05:52:17;98228.69;;;4.38;75.24
21594;BME280;10959;51.328;7.322;2022-11-20T05:54:44;98232.06;;;4.43;75.36
21594;BME280;10959;51.328;7.322;2022-11-20T05:57:10;98231.03;;;4.47;75.26
21594;BME280;10959;51.328;7.322;2022-11-20T05:59:37;98229.31;;;4.46;75.27
21594;BME280;10959;51.328;7.322;2022-11-20T06:02:03;98225.81;;;4.44;75.30
21594;BME280;10959;51.328;7.322;2022-11-20T06:04:30;98221.31;;;4.46;75.34
21594;BME280;10959;51.328;7.322;2022-11-20T06:06:56;98223.88;;;4.49;75.46
21594;BME280;10959;51.328;7.322;2022-11-20T06:09:24;98217.66;;;4.48;75.49
21594;BME280;10959;51.328;7.322;2022-11-20T06:11:51;98214.06;;;4.49;75.30
21594;BME280;10959;51.328;7.322;2022-11-20T06:14:18;98223.88;;;4.49;75.44
21594;BME280;10959;51.328;7.322;2022-11-20T06:16:45;98216.69;;;4.51;75.58
21594;BME280;10959;51.328;7.322;2022-11-20T06:19:11;98210.38;;;4.54;75.46
21594;BME280;10959;51.328;7.322;2022-11-20T06:21:38;98214.84;;;4.53;75.25
21594;BME280;10959;51.328;7.322;2022-11-20T06:24:05;98214.84;;;4.53;74.96
21594;BME280;10959;51.328;7.322;2022-11-20T06:26:33;98214.94;;;4.50;75.11
21594;BME280;10959;51.328;7.322;2022-11-20T06:29:00;98214.84;;;4.53;74.96
21594;BME280;10959;51.328;7.322;2022-11-20T06:31:26;98213.00;;;4.55;75.05
21594;BME280;10959;51.328;7.322;2022-11-20T06:33:53;98221.91;;;4.54;75.00
21594;BME280;10959;51.328;7.322;2022-11-20T06:36:22;98215.72;;;4.54;74.98
21594;BME280;10959;51.328;7.322;2022-11-20T06:38:49;98217.56;;;4.52;75.16
21594;BME280;10959;51.328;7.322;2022-11-20T06:41:17;98211.47;;;4.48;75.16
21594;BME280;10959;51.328;7.322;2022-11-20T06:43:45;98215.03;;;4.47;75.08
21594;BME280;10959;51.328;7.322;2022-11-20T06:46:14;98220.38;;;4.47;75.22
21594;BME280;10959;51.328;7.322;2022-11-20T06:48:42;98231.88;;;4.49;75.29
21594;BME280;10959;51.328;7.322;2022-11-20T06:51:09;98225.59;;;4.50;75.32
21594;BME280;10959;51.328;7.322;2022-11-20T06:53:36;98227.25;;;4.54;75.25
21594;BME280;10959;51.328;7.322;2022-11-20T06:56:03;98241.50;;;4.53;75.11
21594;BME280;10959;51.328;7.322;2022-11-20T06:58:33;98229.97;;;4.53;75.16
21594;BME280;10959;51.328;7.322;2022-11-20T07:01:02;98226.53;;;4.49;74.88
21594;BME280;10959;51.328;7.322;2022-11-20T07:03:29;98234.44;;;4.52;74.93
21594;BME280;10959;51.328;7.322;2022-11-20T07:05:56;98236.25;;;4.50;74.49
21594;BME280;10959;51.328;7.322;2022-11-20T07:08:23;98227.47;;;4.48;74.53
21594;BME280;10959;51.328;7.322;2022-11-20T07:10:50;98229.31;;;4.46;74.77
21594;BME280;10959;51.328;7.322;2022-11-20T07:13:16;98234.53;;;4.49;74.51
21594;BME280;10959;51.328;7.322;2022-11-20T07:15:43;98238.94;;;4.50;74.41
21594;BME280;10959;51.328;7.322;2022-11-20T07:18:11;98239.75;;;4.52;74.57
21594;BME280;10959;51.328;7.322;2022-11-20T07:20:37;98248.63;;;4.53;74.76
21594;BME280;10959;51.328;7.322;2022-11-20T07:23:04;98255.75;;;4.52;74.75
21594;BME280;10959;51.328;7.322;2022-11-20T07:25:30;98243.22;;;4.54;74.57
21594;BME280;10959;51.328;7.322;2022-11-20T07:27:57;98251.19;;;4.56;74.77
21594;BME280;10959;51.328;7.322;2022-11-20T07:30:24;98254.50;;;4.62;74.42
21594;BME280;10959;51.328;7.322;2022-11-20T07:32:51;98255.47;;;4.60;74.53
21594;BME280;10959;51.328;7.322;2022-11-20T07:35:19;98256.31;;;4.62;74.54
21594;BME280;10959;51.328;7.322;2022-11-20T07:37:46;98257.19;;;4.62;74.66
21594;BME280;10959;51.328;7.322;2022-11-20T07:40:14;98257.06;;;4.65;74.58
21594;BME280;10959;51.328;7.322;2022-11-20T07:42:47;98257.41;;;4.56;74.38
21594;BME280;10959;51.328;7.322;2022-11-20T07:45:14;98260.69;;;4.64;74.60
21594;BME280;10959;51.328;7.322;2022-11-20T07:47:41;98251.63;;;4.68;74.68
21594;BME280;10959;51.328;7.322;2022-11-20T07:50:08;98248.03;;;4.70;74.75
21594;BME280;10959;51.328;7.322;2022-11-20T07:52:36;98256.97;;;4.68;74.59
21594;BME280;10959;51.328;7.322;2022-11-20T07:55:02;98254.28;;;4.70;74.96
21594;BME280;10959;51.328;7.322;2022-11-20T07:57:30;98247.13;;;4.71;74.81
21594;BME280;10959;51.328;7.322;2022-11-20T07:59:56;98249.91;;;4.67;74.86
21594;BME280;10959;51.328;7.322;2022-11-20T08:02:23;98266.03;;;4.64;75.02
21594;BME280;10959;51.328;7.322;2022-11-20T08:04:49;98258.94;;;4.63;74.99
21594;BME280;10959;51.328;7.322;2022-11-20T08:07:16;98248.16;;;4.66;75.17
21594;BME280;10959;51.328;7.322;2022-11-20T08:09:44;98257.28;;;4.59;74.85
21594;BME280;10959;51.328;7.322;2022-11-20T08:12:16;98254.06;;;4.49;74.99
21594;BME280;10959;51.328;7.322;2022-11-20T08:15:01;98243.56;;;4.45;75.07
21594;BME280;10959;51.328;7.322;2022-11-20T08:17:27;98251.72;;;4.40;75.28
21594;BME280;10959;51.328;7.322;2022-11-20T08:19:54;98244.84;;;4.33;75.65
21594;BME280;10959;51.328;7.322;2022-11-20T08:22:20;98247.38;;;4.38;75.58
21594;BME280;10959;51.328;7.322;2022-11-20T08:24:48;98241.75;;;4.45;75.69
21594;BME280;10959;51.328;7.322;2022-11-20T08:27:14;98237.78;;;4.57;75.30
21594;BME280;10959;51.328;7.322;2022-11-20T08:29:41;98229.78;;;4.59;75.14
21594;BME280;10959;51.328;7.322;2022-11-20T08:32:09;98237.72;;;4.60;75.21
21594;BME280;10959;51.328;7.322;2022-11-20T08:34:35;98232.16;;;4.66;75.30
21594;BME280;10959;51.328;7.322;2022-11-20T08:37:02;98226.66;;;4.71;75.25
21594;BME280;10959;51.328;7.322;2022-11-20T08:39:29;98229.25;;;4.73;75.43
21594;BME280;10959;51.328;7.322;2022-11-20T08:41:57;98223.13;;;4.71;74.96
21594;BME280;10959;51.328;7.322;2022-11-20T08:44:23;98226.88;;;4.65;74.50
21594;BME280;10959;51.328;7.322;2022-11-20T08:46:50;98234.09;;;4.61;74.87
21594;BME280;10959;51.328;7.322;2022-11-20T08:49:16;98240.88;;;4.72;74.68
21594;BME280;10959;51.328;7.322;2022-11-20T08:51:43;98228.06;;;4.81;74.98
21594;BME280;10959;51.328;7.322;2022-11-20T08:54:12;98232.22;;;4.90;74.72
21594;BME280;10959;51.328;7.322;2022-11-20T08:56:38;98233.03;;;4.92;74.30
21594;BME280;10959;51.328;7.322;2022-11-20T08:59:06;98227.56;;;4.95;74.33
21594;BME280;10959;51.328;7.322;2022-11-20T09:01:33;98239.75;;;5.02;74.20
21594;BME280;10959;51.328;7.322;2022-11-20T09:04:00;98248.38;;;5.11;73.98
21594;BME280;10959;51.328;7.322;2022-11-20T09:06:26;98249.75;;;5.21;74.13
21594;BME280;10959;51.328;7.322;2022-11-20T09:08:53;98242.34;;;5.29;73.93
21594;BME280;10959;51.328;7.322;2022-11-20T09:11:20;98242.00;;;5.39;73.92
21594;BME280;10959;51.328;7.322;2022-11-20T09:13:46;98250.72;;;5.44;73.71
21594;BME280;10959;51.328;7.322;2022-11-20T09:16:14;98240.72;;;5.49;73.39
21594;BME280;10959;51.328;7.322;2022-11-20T09:18:41;98242.25;;;5.56;73.50
21594;BME280;10959;51.328;7.322;2022-11-20T09:21:10;98244.78;;;5.59;73.32
21594;BME280;10959;51.328;7.322;2022-11-20T09:23:38;98242.56;;;5.70;73.38
21594;BME280;10959;51.328;7.322;2022-11-20T09:26:05;98251.25;;;5.76;73.30
21594;BME280;10959;51.328;7.322;2022-11-20T09:28:33;98243.38;;;5.72;71.95
21594;BME280;10959;51.328;7.322;2022-11-20T09:30:59;98245.13;;;5.74;71.55
21594;BME280;10959;51.328;7.322;2022-11-20T09:33:28;98245.25;;;5.47;69.74
21594;BME280;10959;51.328;7.322;2022-11-20T09:35:54;98239.38;;;5.37;70.19
21594;BME280;10959;51.328;7.322;2022-11-20T09:38:20;98237.00;;;5.29;69.65
21594;BME280;10959;51.328;7.322;2022-11-20T09:40:51;98230.97;;;5.00;69.80
21594;BME280;10959;51.328;7.322;2022-11-20T09:43:31;98229.88;;;5.06;70.74
21594;BME280;10959;51.328;7.322;2022-11-20T09:46:08;98218.16;;;5.10;70.51
21594;BME280;10959;51.328;7.322;2022-11-20T09:48:48;98210.75;;;5.17;70.65
21594;BME280;10959;51.328;7.322;2022-11-20T09:51:28;98213.09;;;5.26;70.89
21594;BME280;10959;51.328;7.322;2022-11-20T09:54:07;98207.88;;;5.23;70.67
21594;BME280;10959;51.328;7.322;2022-11-20T09:56:39;98209.06;;;5.16;69.33
21594;BME280;10959;51.328;7.322;2022-11-20T09:59:15;98208.53;;;5.06;69.64
21594;BME280;10959;51.328;7.322;2022-11-20T10:01:45;98211.47;;;5.22;69.66
21594;BME280;10959;51.328;7.322;2022-11-20T10:04:16;98207.19;;;5.18;69.34
21594;BME280;10959;51.328;7.322;2022-11-20T10:06:47;98212.19;;;5.27;69.88
21594;BME280;10959;51.328;7.322;2022-11-20T10:09:22;98206.47;;;5.36;70.19
21594;BME280;10959;51.328;7.322;2022-11-20T10:12:00;98209.75;;;5.45;70.65
21594;BME280;10959;51.328;7.322;2022-11-20T10:14:38;98204.03;;;5.54;70.66
21594;BME280;10959;51.328;7.322;2022-11-20T10:17:15;98199.44;;;5.58;70.63
21594;BME280;10959;51.328;7.322;2022-11-20T10:19:59;98198.34;;;5.63;70.70
21594;BME280;10959;51.328;7.322;2022-11-20T10:22:39;98205.19;;;5.70;70.57
21594;BME280;10959;51.328;7.322;2022-11-20T10:25:14;98207.28;;;5.62;67.94
21594;BME280;10959;51.328;7.322;2022-11-20T10:28:20;98195.81;;;5.36;67.58
21594;BME280;10959;51.328;7.322;2022-11-20T10:30:54;98186.59;;;5.67;68.78
21594;BME280;10959;51.328;7.322;2022-11-20T10:33:23;98176.22;;;5.82;68.89
21594;BME280;10959;51.328;7.322;2022-11-20T10:35:59;98174.22;;;5.87;68.90
21594;BME280;10959;51.328;7.322;2022-11-20T10:38:34;98177.22;;;6.01;68.73
21594;BME280;10959;51.328;7.322;2022-11-20T10:41:05;98180.47;;;6.10;69.24
21594;BME280;10959;51.328;7.322;2022-11-20T10:43:56;98183.81;;;6.15;69.39
21594;BME280;10959;51.328;7.322;2022-11-20T10:46:25;98188.78;;;6.24;69.61
21594;BME280;10959;51.328;7.322;2022-11-20T10:48:51;98179.69;;;6.28;69.13
21594;BME280;10959;51.328;7.322;2022-11-20T10:51:30;98180.19;;;6.16;69.23
21594;BME280;10959;51.328;7.322;2022-11-20T10:54:07;98176.59;;;6.17;69.21
21594;BME280;10959;51.328;7.322;2022-11-20T10:56:39;98178.06;;;6.24;69.20
21594;BME280;10959;51.328;7.322;2022-11-20T10:59:30;98161.75;;;6.10;69.43
21594;BME280;10959;51.328;7.322;2022-11-20T11:01:57;98152.69;;;6.34;69.74
21594;BME280;10959;51.328;7.322;2022-11-20T11:04:32;98154.44;;;6.35;69.05
21594;BME280;10959;51.328;7.322;2022-11-20T11:07:07;98154.44;;;6.35;69.08
21594;BME280;10959;51.328;7.322;2022-11-20T11:09:40;98157.50;;;6.47;69.08
21594;BME280;10959;51.328;7.322;2022-11-20T11:12:09;98162.13;;;6.43;67.43
21594;BME280;10959;51.328;7.322;2022-11-20T11:14:46;98152.94;;;6.28;68.29
21594;BME280;10959;51.328;7.322;2022-11-20T11:17:20;98145.75;;;6.30;68.55
21594;BME280;10959;51.328;7.322;2022-11-20T11:20:00;98142.25;;;6.28;69.05
21594;BME280;10959;51.328;7.322;2022-11-20T11:22:30;98143.34;;;6.45;68.99
21594;BME280;10959;51.328;7.322;2022-11-20T11:24:57;98150.41;;;6.46;68.89
21594;BME280;10959;51.328;7.322;2022-11-20T11:27:23;98136.72;;;6.53;68.86
21594;BME280;10959;51.328;7.322;2022-11-20T11:30:02;98139.84;;;6.43;68.33
21594;BME280;10959;51.328;7.322;2022-11-20T11:32:29;98133.75;;;6.60;68.98
21594;BME280;10959;51.328;7.322;2022-11-20T11:34:59;98127.56;;;6.59;68.55
21594;BME280;10959;51.328;7.322;2022-11-20T11:37:34;98119.69;;;6.56;68.74
21594;BME280;10959;51.328;7.322;2022-11-20T11:40:02;98113.59;;;6.71;68.65
21594;BME280;10959;51.328;7.322;2022-11-20T11:42:29;98111.75;;;6.73;68.89
21594;BME280;10959;51.328;7.322;2022-11-20T11:44:58;98105.47;;;6.74;68.62
21594;BME280;10959;51.328;7.322;2022-11-20T11:47:32;98104.81;;;6.69;68.71
21594;BME280;10959;51.328;7.322;2022-11-20T11:50:14;98096.66;;;6.52;68.46
21594;BME280;10959;51.328;7.322;2022-11-20T11:52:47;98089.16;;;6.60;68.66
21594;BME280;10959;51.328;7.322;2022-11-20T11:55:22;98085.41;;;6.64;68.50
21594;BME280;10959;51.328;7.322;2022-11-20T11:57:54;98084.72;;;6.80;68.64
21594;BME280;10959;51.328;7.322;2022-11-20T12:00:24;98072.00;;;6.85;69.23
21594;BME280;10959;51.328;7.322;2022-11-20T12:03:00;98060.69;;;6.78;69.13
21594;BME280;10959;51.328;7.322;2022-11-20T12:05:35;98076.38;;;6.86;68.58
21594;BME280;10959;51.328;7.322;2022-11-20T12:08:09;98063.75;;;6.89;68.77
21594;BME280;10959;51.328;7.322;2022-11-20T12:10:43;98064.59;;;6.90;69.04
21594;BME280;10959;51.328;7.322;2022-11-20T12:13:21;98069.31;;;6.85;68.75
21594;BME280;10959;51.328;7.322;2022-11-20T12:15:53;98052.88;;;6.92;68.65
21594;BME280;10959;51.328;7.322;2022-11-20T12:18:22;98052.03;;;6.92;68.64
21594;BME280;10959;51.328;7.322;2022-11-20T12:20:58;98053.25;;;6.85;68.62
21594;BME280;10959;51.328;7.322;2022-11-20T12:23:37;98043.63;;;6.81;68.30
21594;BME280;10959;51.328;7.322;2022-11-20T12:26:15;98046.53;;;6.76;68.71
21594;BME280;10959;51.328;7.322;2022-11-20T12:29:01;98041.53;;;6.68;69.18
21594;BME280;10959;51.328;7.322;2022-11-20T12:31:52;98038.91;;;6.67;69.37
21594;BME280;10959;51.328;7.322;2022-11-20T12:34:43;98036.69;;;6.77;69.19
21594;BME280;10959;51.328;7.322;2022-11-20T12:37:21;98027.44;;;6.84;68.82
21594;BME280;10959;51.328;7.322;2022-11-20T12:39:55;98035.53;;;6.82;68.20
21594;BME280;10959;51.328;7.322;2022-11-20T12:42:40;98032.50;;;6.71;68.65
21594;BME280;10959;51.328;7.322;2022-11-20T12:45:54;98035.78;;;6.57;68.97
21594;BME280;10959;51.328;7.322;2022-11-20T12:48:38;98027.69;;;6.58;68.91
21594;BME280;10959;51.328;7.322;2022-11-20T12:57:26;98016.00;;;6.61;69.11
21594;BME280;10959;51.328;7.322;2022-11-20T13:00:07;98012.25;;;6.65;68.62
21594;BME280;10959;51.328;7.322;2022-11-20T13:02:44;98013.31;;;6.61;68.88
21594;BME280;10959;51.328;7.322;2022-11-20T13:05:19;98007.72;;;6.67;69.11
21594;BME280;10959;51.328;7.322;2022-11-20T13:07:50;98006.19;;;6.62;69.29
21594;BME280;10959;51.328;7.322;2022-11-20T13:10:23;98001.69;;;6.62;69.34
21594;BME280;10959;51.328;7.322;2022-11-20T13:12:58;97985.78;;;6.59;69.32
21594;BME280;10959;51.328;7.322;2022-11-20T13:15:50;97990.31;;;6.57;69.77
21594;BME280;10959;51.328;7.322;2022-11-20T13:18:19;97975.53;;;6.69;69.73
21594;BME280;10959;51.328;7.322;2022-11-20T13:20:47;97977.09;;;6.73;69.62
21594;BME280;10959;51.328;7.322;2022-11-20T13:23:23;97960.75;;;6.60;69.30
21594;BME280;10959;51.328;7.322;2022-11-20T13:25:51;97961.78;;;6.77;69.97
21594;BME280;10959;51.328;7.322;2022-11-20T13:28:31;97949.19;;;6.79;69.36
21594;BME280;10959;51.328;7.322;2022-11-20T13:30:58;97949.06;;;6.82;69.40